Time;durP1;ratioP1;P1;durP2;ratioP2;P2;SDS_P1;SDS_P2;PMS_P1;PMS_P2;Temp;Humidity;BMP_temperature;BMP_pressure;BME280_temperature;BME280_humidity;BME280_pressure;Samples;Min_cycle;Max_cycle;Signal;HPM_P1;HPM_P2
2023/01/16 00:01:16;;;;;;;3.47;1.07;;;4.90;99.90;;;;;;5053539;28;20643;-46
2023/01/16 00:03:41;;;;;;;2.27;0.90;;;4.80;99.90;;;;;;5053669;28;20174;-45
2023/01/16 00:06:07;;;;;;;3.20;1.03;;;4.80;99.90;;;;;;5053523;28;20240;-45
2023/01/16 00:08:33;;;;;;;3.33;0.77;;;4.80;99.90;;;;;;5053831;28;20178;-46
2023/01/16 00:10:59;;;;;;;2.77;0.70;;;4.80;99.90;;;;;;5053529;28;20704;-46
2023/01/16 00:13:24;;;;;;;2.77;0.87;;;4.80;99.90;;;;;;5052144;28;20209;-44
2023/01/16 00:15:51;;;;;;;3.70;1.00;;;4.70;99.90;;;;;;5053724;28;20183;-45
2023/01/16 00:18:17;;;;;;;2.87;1.00;;;4.70;99.90;;;;;;5053440;28;20642;-45
2023/01/16 00:20:43;;;;;;;3.60;1.13;;;4.70;99.90;;;;;;5053350;28;20178;-45
2023/01/16 00:23:10;;;;;;;4.00;1.10;;;4.70;99.90;;;;;;5053575;28;20250;-48
2023/01/16 00:25:41;;;;;;;2.20;0.80;;;4.70;99.90;;;;;;5053756;28;20595;-45
2023/01/16 00:28:07;;;;;;;3.60;1.03;;;4.60;99.90;;;;;;5053595;28;20174;-45
2023/01/16 00:30:32;;;;;;;2.50;1.00;;;4.60;99.90;;;;;;5053224;28;20189;-44
2023/01/16 00:32:58;;;;;;;4.40;0.97;;;4.50;99.90;;;;;;5053155;28;20224;-44
2023/01/16 00:35:26;;;;;;;2.80;1.00;;;4.50;99.90;;;;;;5053797;28;20185;-44
2023/01/16 00:37:51;;;;;;;6.03;1.27;;;4.50;99.90;;;;;;5053200;28;20653;-45
2023/01/16 00:40:17;;;;;;;3.37;0.90;;;4.50;99.90;;;;;;5051947;28;20184;-44
2023/01/16 00:42:42;;;;;;;3.60;1.00;;;4.50;99.90;;;;;;5053388;28;20661;-44
2023/01/16 00:45:09;;;;;;;8.70;1.17;;;4.40;99.90;;;;;;5053404;28;20185;-44
2023/01/16 00:47:34;;;;;;;5.83;0.80;;;4.50;99.90;;;;;;5053118;28;20259;-44
2023/01/16 00:50:00;;;;;;;2.50;1.03;;;4.50;99.90;;;;;;5053154;28;20620;-46
2023/01/16 00:52:25;;;;;;;4.20;1.00;;;4.60;99.90;;;;;;5053187;28;20220;-43
2023/01/16 00:54:51;;;;;;;4.33;0.90;;;4.60;99.90;;;;;;5053253;28;20184;-45
2023/01/16 00:57:16;;;;;;;2.27;0.70;;;4.60;99.90;;;;;;5053099;28;20180;-46
2023/01/16 00:59:42;;;;;;;4.93;1.10;;;4.70;99.90;;;;;;5053154;28;20680;-45
2023/01/16 01:02:07;;;;;;;3.90;0.90;;;4.60;99.90;;;;;;5052972;28;20564;-46
2023/01/16 01:04:33;;;;;;;3.73;0.80;;;4.60;99.90;;;;;;5052995;28;20189;-45
2023/01/16 01:06:58;;;;;;;5.43;0.90;;;4.50;99.90;;;;;;5053266;28;20186;-46
2023/01/16 01:09:24;;;;;;;3.57;1.33;;;4.60;99.90;;;;;;5053053;28;20181;-46
2023/01/16 01:11:50;;;;;;;2.47;0.80;;;4.50;99.90;;;;;;5052904;28;20253;-44
2023/01/16 01:14:15;;;;;;;5.20;0.83;;;4.50;99.90;;;;;;5053165;28;20184;-46
2023/01/16 01:16:41;;;;;;;3.13;0.90;;;4.50;99.90;;;;;;5053210;28;20215;-45
2023/01/16 01:19:06;;;;;;;3.43;1.10;;;4.50;99.90;;;;;;5053581;28;20193;-45
2023/01/16 01:21:32;;;;;;;4.63;1.10;;;4.50;99.90;;;;;;5052163;28;20243;-44
2023/01/16 01:23:57;;;;;;;2.80;0.80;;;4.50;99.90;;;;;;5052345;28;20240;-46
2023/01/16 01:26:23;;;;;;;2.23;0.80;;;4.50;99.90;;;;;;5054015;28;20649;-46
2023/01/16 01:28:49;;;;;;;2.77;0.77;;;4.40;99.90;;;;;;5057474;28;20528;-45
2023/01/16 01:31:14;;;;;;;5.43;1.07;;;4.50;99.90;;;;;;5065879;28;20226;-44
2023/01/16 01:33:40;;;;;;;2.40;0.93;;;4.40;99.90;;;;;;5060109;28;20207;-46
2023/01/16 01:36:06;;;;;;;5.10;1.07;;;4.40;99.90;;;;;;5053055;28;20174;-44
2023/01/16 01:38:32;;;;;;;4.77;1.37;;;4.40;99.90;;;;;;5052935;28;20188;-46
2023/01/16 01:40:58;;;;;;;3.97;1.17;;;4.40;99.90;;;;;;5056665;28;20185;-44
2023/01/16 01:43:41;;;;;;;3.87;0.90;;;4.30;99.90;;;;;;5056457;28;20205;-46
2023/01/16 01:46:13;;;;;;;3.07;1.10;;;4.20;99.90;;;;;;5056246;28;20176;-46
2023/01/16 01:48:41;;;;;;;3.47;1.10;;;4.20;99.90;;;;;;5056277;28;20165;-45
2023/01/16 01:51:17;;;;;;;4.57;1.10;;;4.10;99.90;;;;;;5055973;28;20184;-46
2023/01/16 01:53:59;;;;;;;2.87;1.20;;;4.00;99.90;;;;;;5056377;28;20153;-44
2023/01/16 01:56:26;;;;;;;2.93;0.70;;;4.00;99.90;;;;;;5056856;28;20565;-45
2023/01/16 01:58:56;;;;;;;6.03;1.30;;;3.90;99.90;;;;;;5055950;28;20185;-44
2023/01/16 02:01:22;;;;;;;2.50;0.90;;;3.90;99.90;;;;;;5056021;28;20188;-45
2023/01/16 02:03:57;;;;;;;4.03;1.60;;;3.80;99.90;;;;;;5055949;28;20180;-45
2023/01/16 02:06:32;;;;;;;4.77;1.03;;;3.80;99.90;;;;;;5056236;28;20618;-43
2023/01/16 02:08:58;;;;;;;7.37;0.90;;;3.70;99.90;;;;;;5056131;28;20156;-48
2023/01/16 02:11:35;;;;;;;2.20;0.80;;;3.70;99.90;;;;;;5055704;28;20205;-46
2023/01/16 02:14:14;;;;;;;0.83;0.63;;;3.60;99.90;;;;;;5056021;28;20165;-45
2023/01/16 02:20:03;;;;;;;2.37;0.87;;;3.40;99.90;;;;;;5055880;28;20643;-43
2023/01/16 02:23:05;;;;;;;1.67;0.80;;;3.40;99.90;;;;;;5055761;28;20204;-47
2023/01/16 02:26:07;;;;;;;6.53;1.17;;;3.30;99.90;;;;;;5055757;28;20179;-44
2023/01/16 02:28:57;;;;;;;3.37;0.80;;;3.20;99.90;;;;;;5055896;28;20641;-44
2023/01/16 02:31:44;;;;;;;3.93;1.00;;;3.10;99.90;;;;;;5055722;28;20216;-44
2023/01/16 02:34:21;;;;;;;2.37;0.87;;;3.10;99.90;;;;;;5056078;28;20161;-50
2023/01/16 02:37:20;;;;;;;1.73;0.67;;;3.10;99.90;;;;;;5055758;28;20158;-51
2023/01/16 02:40:10;;;;;;;4.30;1.07;;;3.00;99.90;;;;;;5055553;28;20164;-49
2023/01/16 02:42:43;;;;;;;2.47;0.90;;;3.00;99.90;;;;;;5054730;28;20339;-50
2023/01/16 02:45:09;;;;;;;1.87;0.60;;;3.00;99.90;;;;;;5053884;28;20185;-49
2023/01/16 02:47:58;;;;;;;1.97;0.73;;;3.00;99.90;;;;;;5055079;28;20546;-50
2023/01/16 02:50:46;;;;;;;1.87;0.77;;;3.00;99.90;;;;;;5055063;28;20551;-49
2023/01/16 02:53:27;;;;;;;0.93;0.60;;;3.00;99.90;;;;;;5044490;28;20232;-49
2023/01/16 02:55:57;;;;;;;1.97;0.70;;;3.00;99.90;;;;;;5054975;28;20199;-50
2023/01/16 02:58:25;;;;;;;4.50;0.83;;;3.00;99.90;;;;;;5055429;28;20191;-49
2023/01/16 03:00:52;;;;;;;3.47;0.53;;;3.00;99.90;;;;;;5055074;28;20176;-50
2023/01/16 03:03:37;;;;;;;0.93;0.60;;;3.10;99.90;;;;;;5054816;28;20192;-49
2023/01/16 03:06:17;;;;;;;3.50;0.70;;;3.10;99.90;;;;;;5053442;28;20179;-50
2023/01/16 03:09:01;;;;;;;5.00;0.80;;;3.20;99.90;;;;;;5054901;28;20161;-51
2023/01/16 03:11:29;;;;;;;2.93;0.70;;;3.20;99.90;;;;;;5054965;28;21008;-50
2023/01/16 03:14:01;;;;;;;1.93;0.67;;;3.20;99.90;;;;;;5054615;28;20263;-49
2023/01/16 03:16:54;;;;;;;1.00;0.70;;;3.10;99.90;;;;;;5054596;28;20171;-51
2023/01/16 03:19:48;;;;;;;2.27;0.73;;;3.10;99.90;;;;;;5054749;28;20248;-51
2023/01/16 03:22:31;;;;;;;4.30;0.80;;;3.00;99.90;;;;;;5054260;28;20208;-50
2023/01/16 03:25:41;;;;;;;2.57;0.70;;;3.00;99.90;;;;;;5054658;28;20524;-51
2023/01/16 03:28:20;;;;;;;3.13;0.87;;;3.00;99.90;;;;;;5052946;28;20196;-50
2023/01/16 03:30:54;;;;;;;3.03;0.83;;;2.90;99.90;;;;;;5054316;28;20259;-50
2023/01/16 03:33:45;;;;;;;2.50;0.80;;;3.00;99.90;;;;;;5054050;28;20219;-51
2023/01/16 03:36:17;;;;;;;2.20;0.80;;;2.90;99.90;;;;;;5052943;28;20169;-51
2023/01/16 03:38:46;;;;;;;4.23;0.70;;;2.90;99.90;;;;;;5054083;28;20290;-49
2023/01/16 03:41:15;;;;;;;1.00;0.60;;;3.00;99.90;;;;;;5054247;28;20187;-50
2023/01/16 03:43:43;;;;;;;1.17;0.70;;;3.00;99.90;;;;;;5054248;28;20545;-50
2023/01/16 03:46:14;;;;;;;2.03;0.80;;;3.00;99.90;;;;;;5052760;28;20247;-50
2023/01/16 03:48:55;;;;;;;1.17;0.83;;;3.00;99.90;;;;;;5054151;28;20157;-51
2023/01/16 03:51:24;;;;;;;4.90;0.77;;;3.00;99.90;;;;;;5052504;28;20711;-50
2023/01/16 03:54:28;;;;;;;2.40;0.57;;;3.10;99.90;;;;;;5054110;28;20181;-50
2023/01/16 03:57:06;;;;;;;3.83;0.93;;;3.00;99.90;;;;;;5053845;28;20184;-51
2023/01/16 03:59:31;;;;;;;3.43;0.70;;;3.10;99.90;;;;;;5052469;28;20180;-49
2023/01/16 04:02:02;;;;;;;0.97;0.50;;;3.10;99.90;;;;;;5053826;28;20200;-51
2023/01/16 04:04:52;;;;;;;0.77;0.50;;;3.10;99.90;;;;;;5053986;28;20156;-49
2023/01/16 04:07:39;;;;;;;2.00;0.73;;;3.10;99.90;;;;;;5053932;28;20644;-51
2023/01/16 04:10:10;;;;;;;4.97;0.70;;;3.10;99.90;;;;;;5054096;28;20164;-49
2023/01/16 04:12:40;;;;;;;1.43;0.60;;;3.20;99.90;;;;;;5053509;28;20208;-50
2023/01/16 04:15:07;;;;;;;2.80;0.70;;;3.20;99.90;;;;;;5053749;28;20671;-52
2023/01/16 04:17:35;;;;;;;2.23;0.60;;;3.20;99.90;;;;;;5053720;28;20222;-51
2023/01/16 04:20:02;;;;;;;1.53;0.57;;;3.30;99.90;;;;;;5053815;28;20249;-49
2023/01/16 04:22:29;;;;;;;4.03;0.67;;;3.30;99.90;;;;;;5053818;28;20239;-52
2023/01/16 04:24:57;;;;;;;1.53;0.50;;;3.30;99.90;;;;;;5054096;28;20180;-52
2023/01/16 04:27:23;;;;;;;1.90;0.40;;;3.30;99.90;;;;;;5055115;28;20180;-50
2023/01/16 04:29:49;;;;;;;1.60;0.50;;;3.30;99.90;;;;;;5055550;28;20208;-51
2023/01/16 04:32:15;;;;;;;0.57;0.50;;;3.30;99.90;;;;;;5053049;28;20714;-51
2023/01/16 04:34:41;;;;;;;2.70;0.60;;;3.30;99.90;;;;;;5053284;28;20176;-51
2023/01/16 04:37:07;;;;;;;1.07;0.40;;;3.40;99.90;;;;;;5053233;28;20561;-51
2023/01/16 04:39:33;;;;;;;2.90;0.60;;;3.40;99.90;;;;;;5053785;28;20545;-52
2023/01/16 04:41:58;;;;;;;2.13;0.40;;;3.40;99.90;;;;;;5053315;28;20192;-49
2023/01/16 04:44:24;;;;;;;0.40;0.40;;;3.40;99.90;;;;;;5053486;28;20585;-50
2023/01/16 04:46:50;;;;;;;0.30;0.30;;;3.50;99.90;;;;;;5053567;28;20254;-51
2023/01/16 04:49:16;;;;;;;0.30;0.30;;;3.50;99.90;;;;;;5053465;28;20200;-50
2023/01/16 04:51:42;;;;;;;1.13;0.70;;;3.50;99.90;;;;;;5052986;28;20638;-51
2023/01/16 04:54:12;;;;;;;2.37;0.90;;;3.50;99.90;;;;;;5053319;28;20245;-50
2023/01/16 04:56:38;;;;;;;0.30;0.30;;;3.60;99.90;;;;;;5053032;28;20629;-49
2023/01/16 04:59:04;;;;;;;2.30;0.60;;;3.60;99.90;;;;;;5053343;28;20187;-49
2023/01/16 05:01:34;;;;;;;3.33;0.80;;;3.60;99.90;;;;;;5053228;28;20203;-46
2023/01/16 05:04:04;;;;;;;2.67;0.80;;;3.60;99.90;;;;;;5053074;28;20179;-44
2023/01/16 05:06:30;;;;;;;2.23;0.70;;;3.60;99.90;;;;;;5053444;28;20185;-45
2023/01/16 05:08:55;;;;;;;1.73;0.70;;;3.60;99.90;;;;;;5053229;28;20175;-46
2023/01/16 05:11:21;;;;;;;2.63;1.33;;;3.70;99.90;;;;;;5052817;28;20210;-44
2023/01/16 05:13:46;;;;;;;5.63;0.83;;;3.70;99.90;;;;;;5053382;28;20534;-44
2023/01/16 05:16:12;;;;;;;3.77;0.63;;;3.70;99.90;;;;;;5056724;28;20184;-44
2023/01/16 05:18:37;;;;;;;1.30;0.60;;;3.70;99.90;;;;;;5056676;28;20180;-43
2023/01/16 05:21:04;;;;;;;2.17;0.70;;;3.80;99.90;;;;;;5056674;28;20188;-41
2023/01/16 05:23:32;;;;;;;1.40;0.50;;;3.80;99.90;;;;;;5056577;28;20192;-44
2023/01/16 05:25:59;;;;;;;2.37;0.77;;;3.80;99.90;;;;;;5057346;28;20210;-44
2023/01/16 05:28:24;;;;;;;1.03;0.70;;;3.90;99.90;;;;;;5057083;28;20193;-44
2023/01/16 05:30:50;;;;;;;1.43;0.90;;;3.90;99.90;;;;;;5056558;28;20311;-46
2023/01/16 05:33:16;;;;;;;1.63;0.60;;;3.90;99.90;;;;;;5057020;28;20211;-44
2023/01/16 05:35:42;;;;;;;3.40;0.80;;;3.90;99.90;;;;;;5056655;28;20176;-45
2023/01/16 05:38:07;;;;;;;1.27;0.60;;;3.90;99.90;;;;;;5056566;28;20607;-45
2023/01/16 05:40:33;;;;;;;3.80;0.70;;;3.90;99.90;;;;;;5057055;28;20187;-47
2023/01/16 05:42:59;;;;;;;2.73;0.77;;;4.00;99.90;;;;;;5056295;28;20286;-44
2023/01/16 05:45:24;;;;;;;3.53;0.90;;;4.00;99.90;;;;;;5056212;28;20188;-42
2023/01/16 05:47:50;;;;;;;2.30;0.73;;;3.90;99.90;;;;;;5056482;28;20212;-42
2023/01/16 05:50:15;;;;;;;1.53;0.70;;;4.00;99.90;;;;;;5056137;28;20216;-44
2023/01/16 05:52:41;;;;;;;2.30;0.50;;;4.00;99.90;;;;;;5055999;28;20211;-45
2023/01/16 05:55:07;;;;;;;1.17;0.57;;;4.00;99.90;;;;;;5056637;28;20263;-44
2023/01/16 05:57:32;;;;;;;1.60;0.90;;;4.10;99.90;;;;;;5056208;28;20184;-45
2023/01/16 05:59:58;;;;;;;2.07;0.70;;;4.10;99.90;;;;;;5056012;28;20270;-44
2023/01/16 06:02:24;;;;;;;2.10;0.40;;;4.10;99.90;;;;;;5055842;28;20606;-43
2023/01/16 06:04:49;;;;;;;1.00;0.60;;;4.10;99.90;;;;;;5055821;28;20184;-46
2023/01/16 06:07:15;;;;;;;1.97;0.50;;;4.20;99.90;;;;;;5055717;28;20180;-51
2023/01/16 06:09:41;;;;;;;1.73;0.50;;;4.20;99.90;;;;;;5056331;28;20199;-51
2023/01/16 06:12:09;;;;;;;0.83;0.50;;;4.20;99.90;;;;;;5055663;28;20611;-49
2023/01/16 06:14:35;;;;;;;2.63;0.73;;;4.30;99.90;;;;;;5055735;28;20183;-50
2023/01/16 06:17:00;;;;;;;2.77;0.57;;;4.30;99.90;;;;;;5056006;28;20184;-49
2023/01/16 06:19:26;;;;;;;1.80;0.60;;;4.40;99.90;;;;;;5056129;28;20208;-52
2023/01/16 06:25:13;;;;;;;0.50;0.50;;;4.50;99.90;;;;;;5055258;28;20252;-51
2023/01/16 06:27:39;;;;;;;1.73;0.57;;;4.50;99.90;;;;;;5055528;28;20212;-50
2023/01/16 06:30:06;;;;;;;1.23;0.93;;;4.50;99.90;;;;;;5055753;28;20188;-51
2023/01/16 06:32:32;;;;;;;1.83;0.50;;;4.60;99.90;;;;;;5055139;28;20254;-51
2023/01/16 06:34:58;;;;;;;1.83;0.60;;;4.60;99.90;;;;;;5055601;28;20216;-50
2023/01/16 06:37:23;;;;;;;2.10;0.60;;;4.60;99.90;;;;;;5055585;28;20181;-51
2023/01/16 06:39:49;;;;;;;1.13;0.47;;;4.60;99.90;;;;;;5055955;28;20180;-51
2023/01/16 06:42:15;;;;;;;3.50;0.77;;;4.70;99.90;;;;;;5054530;28;20261;-50
2023/01/16 06:44:40;;;;;;;1.30;0.73;;;4.70;99.90;;;;;;5055611;28;20206;-50
2023/01/16 06:47:06;;;;;;;3.13;0.90;;;4.70;99.90;;;;;;5056108;28;20184;-51
2023/01/16 06:49:32;;;;;;;5.87;0.90;;;4.80;99.90;;;;;;5055269;28;20685;-50
2023/01/16 06:51:59;;;;;;;0.87;0.30;;;4.80;99.90;;;;;;5054902;28;20216;-50
2023/01/16 06:54:25;;;;;;;6.90;0.80;;;4.80;99.90;;;;;;5055044;28;20252;-49
2023/01/16 06:56:51;;;;;;;0.83;0.50;;;4.80;99.90;;;;;;5054025;28;20652;-51
2023/01/16 06:59:16;;;;;;;0.47;0.40;;;4.80;99.90;;;;;;5054130;28;20561;-49
2023/01/16 07:01:42;;;;;;;0.87;0.47;;;4.80;99.90;;;;;;5053621;28;20214;-51
2023/01/16 07:04:09;;;;;;;3.50;0.60;;;4.90;99.90;;;;;;5054975;28;20246;-50
2023/01/16 07:06:35;;;;;;;1.50;0.63;;;4.90;99.90;;;;;;5054989;28;20188;-50
2023/01/16 07:09:01;;;;;;;3.33;0.70;;;4.90;99.90;;;;;;5054889;28;20602;-49
2023/01/16 07:11:27;;;;;;;2.80;0.63;;;4.90;99.90;;;;;;5054482;28;20180;-50
2023/01/16 07:22:34;;;;;;;5.40;0.60;;;5.00;99.90;;;;;;5053355;28;20640;-51
2023/01/16 07:24:57;;;;;;;3.57;0.50;;;5.00;99.90;;;;;;5054388;28;20269;-52
2023/01/16 07:27:23;;;;;;;0.67;0.60;;;5.00;99.90;;;;;;5066566;28;20185;-49
2023/01/16 07:29:48;;;;;;;9.00;1.20;;;5.00;99.90;;;;;;5062971;28;20628;-50
2023/01/16 07:32:14;;;;;;;0.67;0.50;;;5.00;99.90;;;;;;5054488;28;20243;-47
2023/01/16 07:34:40;;;;;;;4.53;0.93;;;5.10;99.90;;;;;;5055642;28;20185;-44
2023/01/16 07:37:07;;;;;;;1.33;0.80;;;5.10;99.90;;;;;;5053552;28;20182;-45
2023/01/16 07:39:32;;;;;;;2.20;0.63;;;5.10;99.90;;;;;;5054198;28;20535;-46
2023/01/16 07:42:06;;;;;;;2.63;0.50;;;5.10;99.90;;;;;;5054474;28;20212;-45
2023/01/16 07:44:32;;;;;;;3.83;2.03;;;5.10;99.90;;;;;;5054342;28;20172;-44
2023/01/16 07:46:57;;;;;;;1.70;0.70;;;5.10;99.90;;;;;;5054500;28;20182;-46
2023/01/16 07:49:23;;;;;;;1.07;0.80;;;5.10;99.90;;;;;;5054668;28;20256;-45
2023/01/16 07:51:48;;;;;;;2.67;0.70;;;5.10;99.90;;;;;;5052540;28;20666;-44
2023/01/16 07:54:14;;;;;;;1.90;0.97;;;5.10;99.90;;;;;;5054330;28;20183;-44
2023/01/16 07:56:39;;;;;;;1.10;0.70;;;5.10;99.90;;;;;;5053880;28;20169;-43
2023/01/16 07:59:06;;;;;;;2.03;0.87;;;5.10;99.90;;;;;;5052519;28;20268;-46
2023/01/16 08:01:32;;;;;;;3.10;0.70;;;5.10;99.90;;;;;;5053913;28;20224;-46
2023/01/16 08:03:57;;;;;;;3.20;0.73;;;5.10;99.90;;;;;;5053693;28;20226;-46
2023/01/16 08:06:23;;;;;;;1.50;0.80;;;5.10;99.90;;;;;;5052481;28;20238;-46
2023/01/16 08:08:48;;;;;;;4.17;1.00;;;5.10;99.90;;;;;;5053636;28;20181;-46
2023/01/16 08:13:58;;;;;;;2.53;0.77;;;5.10;99.90;;;;;;5053557;28;20211;-45
2023/01/16 08:16:23;;;;;;;3.00;0.67;;;5.10;99.90;;;;;;5053445;28;20182;-46
2023/01/16 08:18:49;;;;;;;2.57;0.67;;;5.10;99.90;;;;;;5053543;28;20182;-46
2023/01/16 08:21:16;;;;;;;2.10;0.80;;;5.10;99.90;;;;;;5053509;28;20183;-45
2023/01/16 08:23:42;;;;;;;0.90;0.60;;;5.10;99.90;;;;;;5053697;28;20186;-45
2023/01/16 08:26:08;;;;;;;0.60;0.60;;;5.10;99.90;;;;;;5053383;28;20679;-47
2023/01/16 08:28:33;;;;;;;1.67;0.93;;;5.10;99.90;;;;;;5053357;28;20216;-44
2023/01/16 08:31:13;;;;;;;1.20;0.70;;;5.10;99.90;;;;;;5053575;28;20280;-44
2023/01/16 08:33:40;;;;;;;2.97;0.90;;;5.10;99.90;;;;;;5053674;28;20190;-44
2023/01/16 08:36:08;;;;;;;2.33;0.70;;;5.10;99.90;;;;;;5053221;28;20272;-45
2023/01/16 08:38:34;;;;;;;2.53;0.70;;;5.10;99.90;;;;;;5053181;28;20561;-45
2023/01/16 08:40:59;;;;;;;1.43;0.60;;;5.00;99.90;;;;;;5053232;28;20178;-45
2023/01/16 08:51:58;;;;;;;0.77;0.50;;;5.00;99.90;;;;;;5057377;28;20364;-46
2023/01/16 08:54:25;;;;;;;1.00;0.50;;;5.00;99.90;;;;;;5057252;28;20611;-44
2023/01/16 08:56:50;;;;;;;1.60;0.80;;;5.00;99.90;;;;;;5057637;28;20625;-46
2023/01/16 08:59:16;;;;;;;1.80;0.57;;;5.00;99.90;;;;;;5057693;28;20183;-49
2023/01/16 09:01:42;;;;;;;1.63;0.50;;;5.00;99.90;;;;;;5055841;28;20209;-48
2023/01/16 09:04:08;;;;;;;1.23;0.63;;;5.10;99.90;;;;;;5057189;28;20174;-50
2023/01/16 09:06:37;;;;;;;0.83;0.30;;;5.00;99.90;;;;;;5057575;28;20513;-49
2023/01/16 09:09:04;;;;;;;1.13;0.57;;;5.00;99.90;;;;;;5057346;28;20170;-49
2023/01/16 09:14:14;;;;;;;0.50;0.50;;;5.00;99.90;;;;;;5057398;28;20217;-49
2023/01/16 09:16:40;;;;;;;1.60;0.30;;;5.00;99.90;;;;;;5055580;28;20586;-50
2023/01/16 09:19:05;;;;;;;0.53;0.53;;;5.00;99.90;;;;;;5055887;28;20758;-50
2023/01/16 09:21:31;;;;;;;1.20;0.63;;;5.00;99.90;;;;;;5056896;28;20673;-50
2023/01/16 09:23:56;;;;;;;1.47;0.53;;;5.10;99.90;;;;;;5056954;28;20630;-51
2023/01/16 09:26:22;;;;;;;1.27;0.40;;;5.00;99.90;;;;;;5057180;28;20252;-49
2023/01/16 09:28:48;;;;;;;0.73;0.50;;;5.10;99.90;;;;;;5055287;28;20185;-48
2023/01/16 09:31:13;;;;;;;0.50;0.50;;;5.00;99.90;;;;;;5056230;28;20202;-49
2023/01/16 09:33:41;;;;;;;0.40;0.40;;;5.10;99.90;;;;;;5056748;28;20201;-50
2023/01/16 09:36:07;;;;;;;0.50;0.50;;;5.10;99.90;;;;;;5056736;28;20177;-49
2023/01/16 09:38:32;;;;;;;0.43;0.40;;;5.10;99.90;;;;;;5055152;28;20178;-47
2023/01/16 09:40:59;;;;;;;0.30;0.30;;;5.00;99.90;;;;;;5056706;28;20594;-49
2023/01/16 09:43:42;;;;;;;0.30;0.30;;;5.10;99.90;;;;;;5056234;28;20268;-49
2023/01/16 09:46:18;;;;;;;1.23;0.40;;;5.10;99.90;;;;;;5056663;28;20533;-49
2023/01/16 09:49:08;;;;;;;0.40;0.40;;;5.10;99.90;;;;;;5056451;28;20175;-49
2023/01/16 09:58:34;;;;;;;0.37;0.37;;;5.10;99.90;;;;;;5056296;28;20715;-49
2023/01/16 10:00:05;;;;;;;1.43;0.97;;;5.10;99.90;;;;;;5054624;28;20189;-48
2023/01/16 10:02:33;;;;;;;0.40;0.40;;;5.10;99.90;;;;;;5056458;28;20617;-49
2023/01/16 10:05:02;;;;;;;2.47;1.50;;;5.10;99.90;;;;;;5056012;28;20195;-51
2023/01/16 10:07:42;;;;;;;1.50;0.97;;;5.20;99.90;;;;;;5055976;28;20545;-50
2023/01/16 10:10:34;;;;;;;0.90;0.80;;;5.20;99.90;;;;;;5055887;28;20536;-52
2023/01/16 10:13:17;;;;;;;1.07;0.80;;;5.20;99.90;;;;;;5055734;28;20235;-48
2023/01/16 10:16:12;;;;;;;0.80;0.60;;;5.20;99.90;;;;;;5055869;28;20174;-52
2023/01/16 10:19:14;;;;;;;0.70;0.57;;;5.20;99.90;;;;;;5054385;28;20173;-50
2023/01/16 10:21:58;;;;;;;1.10;0.60;;;5.30;99.90;;;;;;5055610;28;20266;-51
2023/01/16 10:24:46;;;;;;;2.97;1.20;;;5.30;99.90;;;;;;5054414;28;20172;-51
2023/01/16 10:27:33;;;;;;;2.50;1.20;;;5.30;99.90;;;;;;5055782;28;20168;-49
2023/01/16 10:30:23;;;;;;;4.83;1.50;;;5.40;99.90;;;;;;5055505;28;20220;-49
2023/01/16 10:33:12;;;;;;;1.30;0.70;;;5.50;99.90;;;;;;5062794;28;20213;-49
2023/01/16 10:35:39;;;;;;;3.80;1.20;;;5.50;99.90;;;;;;5061982;28;20156;-50
2023/01/16 10:38:42;;;;;;;2.87;0.83;;;5.50;99.90;;;;;;5055550;28;20178;-51
2023/01/16 10:49:25;;;;;;;1.47;0.83;;;5.60;99.90;;;;;;5055743;28;20211;-50
2023/01/16 10:49:38;;;;;;;1.00;0.73;;;5.80;99.90;;;;;;5055222;28;20197;-50
2023/01/16 10:52:05;;;;;;;1.27;0.60;;;5.80;99.90;;;;;;5055079;28;20206;-50
2023/01/16 10:54:31;;;;;;;1.87;0.87;;;5.90;99.90;;;;;;5055025;28;20173;-50
2023/01/16 10:57:03;;;;;;;0.47;0.47;;;5.90;99.90;;;;;;5055118;28;20180;-50
2023/01/16 10:59:31;;;;;;;1.30;0.60;;;5.90;99.90;;;;;;5037904;28;20183;-50
2023/01/16 11:02:03;;;;;;;0.93;0.60;;;5.90;99.90;;;;;;5053511;28;20621;-51
2023/01/16 11:04:35;;;;;;;2.97;1.00;;;6.00;99.90;;;;;;5053611;28;20179;-50
2023/01/16 11:07:14;;;;;;;1.40;0.70;;;6.10;99.90;;;;;;5055011;28;20184;-50
2023/01/16 11:09:43;;;;;;;1.50;0.80;;;6.10;99.90;;;;;;5055105;28;20155;-51
2023/01/16 11:20:44;;;;;;;0.63;0.40;;;6.40;99.90;;;;;;5055034;28;20173;-42
2023/01/16 11:23:20;;;;;;;0.30;0.30;;;6.40;99.90;;;;;;5054740;28;20275;-45
2023/01/16 11:25:47;;;;;;;0.30;0.30;;;6.40;99.90;;;;;;5054770;28;20222;-45
2023/01/16 11:28:22;;;;;;;0.93;0.40;;;6.40;99.90;;;;;;5054339;28;20304;-45
2023/01/16 11:30:51;;;;;;;1.37;0.50;;;6.30;99.90;;;;;;5054375;28;20175;-45
2023/01/16 11:33:27;;;;;;;0.50;0.43;;;6.30;99.90;;;;;;5054069;28;20203;-46
2023/01/16 11:35:56;;;;;;;2.43;0.30;;;6.30;99.90;;;;;;5053090;28;20160;-43
2023/01/16 11:38:24;;;;;;;0.40;0.40;;;6.40;99.90;;;;;;5053027;28;20169;-45
2023/01/16 11:40:52;;;;;;;1.57;0.40;;;6.40;99.90;;;;;;5054185;28;20180;-44
2023/01/16 11:46:30;;;;;;;0.40;0.40;;;6.50;99.90;;;;;;5054331;28;20162;-43
2023/01/16 11:49:04;;;;;;;0.93;0.50;;;6.50;99.90;;;;;;5054272;28;20168;-42
2023/01/16 11:51:36;;;;;;;0.93;0.47;;;6.50;99.90;;;;;;5054000;28;20199;-44
2023/01/16 11:54:03;;;;;;;0.97;0.40;;;6.50;99.90;;;;;;5052602;28;20179;-45
2023/01/16 11:56:57;;;;;;;0.93;0.60;;;6.50;99.90;;;;;;5054168;28;20177;-44
2023/01/16 11:59:37;;;;;;;0.47;0.40;;;6.50;99.90;;;;;;5053752;28;20547;-44
2023/01/16 12:02:34;;;;;;;0.40;0.40;;;6.50;99.90;;;;;;5053796;28;20287;-44
2023/01/16 12:08:20;;;;;;;1.53;0.40;;;6.50;99.90;;;;;;5053795;28;20167;-44
2023/01/16 12:10:46;;;;;;;0.53;0.50;;;6.50;99.90;;;;;;5054316;28;20176;-43
2023/01/16 12:16:23;;;;;;;0.70;0.50;;;6.50;99.90;;;;;;5054168;28;20192;-43
2023/01/16 12:19:13;;;;;;;0.30;0.30;;;6.50;99.90;;;;;;5054294;28;20171;-46
2023/01/16 12:21:52;;;;;;;1.10;0.63;;;6.60;99.90;;;;;;5053656;28;20309;-44
2023/01/16 12:24:27;;;;;;;1.83;0.20;;;6.50;99.90;;;;;;5053529;28;20261;-45
2023/01/16 12:27:58;;;;;;;0.70;0.50;;;6.50;99.90;;;;;;5053705;28;20159;-45
2023/01/16 12:30:24;;;;;;;0.50;0.50;;;6.50;99.90;;;;;;5018965;28;20191;-43
2023/01/16 12:32:58;;;;;;;0.77;0.30;;;6.50;99.90;;;;;;5052918;28;20243;-45
2023/01/16 12:35:47;;;;;;;1.13;0.40;;;6.50;99.90;;;;;;5053562;28;20269;-44
2023/01/16 12:38:17;;;;;;;5.03;0.40;;;6.50;99.90;;;;;;5053415;28;20176;-44
2023/01/16 12:40:51;;;;;;;0.70;0.50;;;6.50;99.90;;;;;;5053958;28;20159;-44
2023/01/16 12:43:42;;;;;;;1.47;0.40;;;6.50;99.90;;;;;;5053201;28;20253;-45
2023/01/16 12:46:15;;;;;;;0.40;0.40;;;6.50;99.90;;;;;;5053306;28;20290;-44
2023/01/16 12:48:57;;;;;;;0.30;0.30;;;6.50;99.90;;;;;;5053847;28;20624;-45
2023/01/16 12:51:43;;;;;;;0.30;0.30;;;6.50;99.90;;;;;;5053442;28;20521;-44
2023/01/16 12:54:23;;;;;;;0.30;0.30;;;6.50;99.90;;;;;;5051988;28;20181;-52
2023/01/16 12:57:15;;;;;;;2.60;0.30;;;6.50;99.90;;;;;;5053384;28;20212;-52
2023/01/16 12:59:47;;;;;;;1.47;0.40;;;6.50;99.90;;;;;;5053430;28;20164;-51
2023/01/16 13:02:13;;;;;;;1.43;0.37;;;6.50;99.90;;;;;;5053057;28;20719;-51
2023/01/16 13:04:53;;;;;;;1.40;0.50;;;6.50;99.90;;;;;;5053250;28;20222;-51
2023/01/16 13:07:21;;;;;;;0.63;0.30;;;6.40;99.90;;;;;;5053556;28;20182;-50
2023/01/16 13:13:20;;;;;;;0.20;0.20;;;6.40;99.90;;;;;;5052932;28;20324;-50
2023/01/16 13:15:28;;;;;;;0.37;0.37;;;6.40;99.90;;;;;;5052853;28;20229;-50
2023/01/16 13:18:00;;;;;;;1.83;0.30;;;6.40;99.90;;;;;;5053005;28;20247;-50
2023/01/16 13:20:27;;;;;;;1.03;0.40;;;6.40;99.90;;;;;;5052901;28;20179;-52
2023/01/16 13:23:19;;;;;;;0.30;0.30;;;6.40;99.90;;;;;;5052768;28;20194;-51
2023/01/16 13:25:47;;;;;;;0.60;0.60;;;6.40;99.90;;;;;;5050319;28;20199;-51
2023/01/16 13:28:45;;;;;;;2.00;0.30;;;6.30;99.90;;;;;;5052884;28;20213;-49
2023/01/16 13:31:28;;;;;;;0.87;0.30;;;6.30;99.90;;;;;;5052824;28;20281;-51
2023/01/16 13:34:00;;;;;;;0.23;0.23;;;6.30;99.90;;;;;;5053297;28;20587;-51
2023/01/16 13:36:58;;;;;;;0.30;0.30;;;6.30;99.90;;;;;;5056580;28;20206;-51
2023/01/16 13:39:44;;;;;;;0.30;0.30;;;6.20;99.90;;;;;;5057028;28;20225;-49
2023/01/16 13:42:13;;;;;;;0.30;0.30;;;6.20;99.90;;;;;;5057495;28;20198;-49
2023/01/16 13:47:30;;;;;;;0.47;0.37;;;6.10;99.90;;;;;;5071976;28;20162;-49
2023/01/16 13:50:13;;;;;;;0.30;0.30;;;6.10;99.90;;;;;;5062725;28;20173;-49
2023/01/16 13:52:41;;;;;;;0.27;0.27;;;6.10;99.90;;;;;;5056975;28;20222;-50
2023/01/16 13:55:35;;;;;;;0.30;0.30;;;6.10;99.90;;;;;;5056802;28;20255;-50
2023/01/16 13:58:29;;;;;;;0.20;0.20;;;6.10;99.90;;;;;;5056499;28;20233;-49
2023/01/16 14:01:01;;;;;;;0.90;0.40;;;6.10;99.90;;;;;;5055856;28;20195;-49
2023/01/16 14:03:32;;;;;;;0.50;0.30;;;6.00;99.90;;;;;;5055978;28;20750;-47
2023/01/16 14:06:09;;;;;;;0.67;0.30;;;6.00;99.90;;;;;;5056151;28;20654;-49
2023/01/16 14:09:07;;;;;;;0.30;0.30;;;6.00;99.90;;;;;;5056000;28;20187;-49
2023/01/16 14:11:36;;;;;;;0.20;0.20;;;5.90;99.90;;;;;;5055707;28;20758;-48
2023/01/16 14:17:13;;;;;;;0.50;0.50;;;5.90;99.90;;;;;;5055752;28;20262;-48
2023/01/16 14:20:00;;;;;;;0.43;0.37;;;5.80;99.90;;;;;;5055844;28;20692;-49
2023/01/16 14:25:17;;;;;;;0.50;0.40;;;5.80;99.90;;;;;;5056000;28;20201;-48
2023/01/16 14:27:47;;;;;;;2.63;0.40;;;5.80;99.90;;;;;;5055890;28;20171;-48
2023/01/16 14:30:18;;;;;;;5.00;0.60;;;5.80;99.90;;;;;;5055551;28;20171;-47
2023/01/16 14:32:52;;;;;;;0.77;0.40;;;5.70;99.90;;;;;;5055364;28;20305;-46